sensor_id;sensor_type;location;lat;lon;timestamp;P1;durP1;ratioP1;P2;durP2;ratioP2
18822;SDS011;9540;51.550;7.980;2023-03-03T00:00:41;72.40;;;28.27;;
18822;SDS011;9540;51.550;7.980;2023-03-03T00:03:09;67.90;;;28.90;;
18822;SDS011;9540;51.550;7.980;2023-03-03T00:05:39;65.37;;;28.03;;
18822;SDS011;9540;51.550;7.980;2023-03-03T00:08:08;67.17;;;29.43;;
18822;SDS011;9540;51.550;7.980;2023-03-03T00:10:35;61.23;;;28.47;;
18822;SDS011;9540;51.550;7.980;2023-03-03T00:13:02;70.43;;;29.57;;
18822;SDS011;9540;51.550;7.980;2023-03-03T00:15:31;64.03;;;27.23;;
18822;SDS011;9540;51.550;7.980;2023-03-03T00:17:58;71.53;;;29.23;;
18822;SDS011;9540;51.550;7.980;2023-03-03T00:20:29;67.80;;;29.17;;
18822;SDS011;9540;51.550;7.980;2023-03-03T00:23:05;67.30;;;28.13;;
18822;SDS011;9540;51.550;7.980;2023-03-03T00:25:43;65.77;;;25.87;;
18822;SDS011;9540;51.550;7.980;2023-03-03T00:30:55;67.53;;;28.10;;
18822;SDS011;9540;51.550;7.980;2023-03-03T00:33:25;62.83;;;26.60;;
18822;SDS011;9540;51.550;7.980;2023-03-03T00:35:56;63.97;;;26.80;;
18822;SDS011;9540;51.550;7.980;2023-03-03T00:38:36;58.97;;;26.03;;
18822;SDS011;9540;51.550;7.980;2023-03-03T00:41:04;61.40;;;27.63;;
18822;SDS011;9540;51.550;7.980;2023-03-03T00:43:41;65.87;;;26.43;;
18822;SDS011;9540;51.550;7.980;2023-03-03T00:46:08;66.33;;;27.77;;
18822;SDS011;9540;51.550;7.980;2023-03-03T00:48:40;64.50;;;27.00;;
18822;SDS011;9540;51.550;7.980;2023-03-03T00:51:12;59.33;;;27.00;;
18822;SDS011;9540;51.550;7.980;2023-03-03T00:53:52;71.83;;;28.30;;
18822;SDS011;9540;51.550;7.980;2023-03-03T00:56:19;62.30;;;27.50;;
18822;SDS011;9540;51.550;7.980;2023-03-03T00:58:46;61.43;;;25.33;;
18822;SDS011;9540;51.550;7.980;2023-03-03T01:01:13;63.67;;;25.90;;
18822;SDS011;9540;51.550;7.980;2023-03-03T01:03:40;67.73;;;27.70;;
18822;SDS011;9540;51.550;7.980;2023-03-03T01:06:07;62.87;;;26.40;;
18822;SDS011;9540;51.550;7.980;2023-03-03T01:08:35;69.27;;;27.50;;
18822;SDS011;9540;51.550;7.980;2023-03-03T01:11:04;64.33;;;26.57;;
18822;SDS011;9540;51.550;7.980;2023-03-03T01:13:35;66.73;;;26.83;;
18822;SDS011;9540;51.550;7.980;2023-03-03T01:16:05;71.43;;;27.80;;
18822;SDS011;9540;51.550;7.980;2023-03-03T01:18:33;67.07;;;27.93;;
18822;SDS011;9540;51.550;7.980;2023-03-03T01:21:00;61.23;;;26.63;;
18822;SDS011;9540;51.550;7.980;2023-03-03T01:23:28;65.83;;;26.33;;
18822;SDS011;9540;51.550;7.980;2023-03-03T01:25:54;62.77;;;25.30;;
18822;SDS011;9540;51.550;7.980;2023-03-03T01:28:23;64.53;;;26.23;;
18822;SDS011;9540;51.550;7.980;2023-03-03T01:30:50;59.90;;;26.93;;
18822;SDS011;9540;51.550;7.980;2023-03-03T01:33:17;61.63;;;25.93;;
18822;SDS011;9540;51.550;7.980;2023-03-03T01:35:44;65.43;;;27.70;;
18822;SDS011;9540;51.550;7.980;2023-03-03T01:38:11;61.47;;;25.97;;
18822;SDS011;9540;51.550;7.980;2023-03-03T01:40:38;65.47;;;28.13;;
18822;SDS011;9540;51.550;7.980;2023-03-03T01:43:05;61.57;;;25.47;;
18822;SDS011;9540;51.550;7.980;2023-03-03T01:45:40;62.40;;;27.20;;
18822;SDS011;9540;51.550;7.980;2023-03-03T01:48:31;60.27;;;25.23;;
18822;SDS011;9540;51.550;7.980;2023-03-03T01:51:00;62.50;;;26.73;;
18822;SDS011;9540;51.550;7.980;2023-03-03T01:53:32;62.50;;;26.13;;
18822;SDS011;9540;51.550;7.980;2023-03-03T01:56:01;67.57;;;27.33;;
18822;SDS011;9540;51.550;7.980;2023-03-03T01:58:31;62.80;;;24.97;;
18822;SDS011;9540;51.550;7.980;2023-03-03T02:01:03;63.23;;;26.30;;
18822;SDS011;9540;51.550;7.980;2023-03-03T02:03:33;64.77;;;27.33;;
18822;SDS011;9540;51.550;7.980;2023-03-03T02:06:02;63.23;;;25.97;;
18822;SDS011;9540;51.550;7.980;2023-03-03T02:08:36;56.40;;;24.00;;
18822;SDS011;9540;51.550;7.980;2023-03-03T02:11:06;70.47;;;25.93;;
18822;SDS011;9540;51.550;7.980;2023-03-03T02:13:34;73.33;;;26.83;;
18822;SDS011;9540;51.550;7.980;2023-03-03T02:16:03;63.37;;;24.17;;
18822;SDS011;9540;51.550;7.980;2023-03-03T02:18:30;73.70;;;27.60;;
18822;SDS011;9540;51.550;7.980;2023-03-03T02:20:59;62.03;;;26.00;;
18822;SDS011;9540;51.550;7.980;2023-03-03T02:23:32;63.13;;;26.40;;
18822;SDS011;9540;51.550;7.980;2023-03-03T02:26:09;64.80;;;25.97;;
18822;SDS011;9540;51.550;7.980;2023-03-03T02:28:37;64.53;;;25.13;;
18822;SDS011;9540;51.550;7.980;2023-03-03T02:31:06;68.80;;;25.87;;
18822;SDS011;9540;51.550;7.980;2023-03-03T02:33:37;66.90;;;25.10;;
18822;SDS011;9540;51.550;7.980;2023-03-03T02:36:04;68.23;;;25.33;;
18822;SDS011;9540;51.550;7.980;2023-03-03T02:38:33;62.23;;;24.87;;
18822;SDS011;9540;51.550;7.980;2023-03-03T02:41:08;60.67;;;25.50;;
18822;SDS011;9540;51.550;7.980;2023-03-03T02:43:43;66.23;;;25.17;;
18822;SDS011;9540;51.550;7.980;2023-03-03T02:46:17;65.63;;;25.37;;
18822;SDS011;9540;51.550;7.980;2023-03-03T02:48:44;67.23;;;26.00;;
18822;SDS011;9540;51.550;7.980;2023-03-03T02:51:11;62.50;;;26.03;;
18822;SDS011;9540;51.550;7.980;2023-03-03T02:53:38;65.67;;;25.23;;
18822;SDS011;9540;51.550;7.980;2023-03-03T02:56:05;67.03;;;24.87;;
18822;SDS011;9540;51.550;7.980;2023-03-03T02:58:35;62.47;;;25.97;;
18822;SDS011;9540;51.550;7.980;2023-03-03T03:01:03;56.37;;;21.77;;
18822;SDS011;9540;51.550;7.980;2023-03-03T03:03:31;61.93;;;23.63;;
18822;SDS011;9540;51.550;7.980;2023-03-03T03:05:58;59.03;;;22.80;;
18822;SDS011;9540;51.550;7.980;2023-03-03T03:08:25;57.63;;;23.77;;
18822;SDS011;9540;51.550;7.980;2023-03-03T03:10:51;57.97;;;22.70;;
18822;SDS011;9540;51.550;7.980;2023-03-03T03:13:20;58.47;;;22.97;;
18822;SDS011;9540;51.550;7.980;2023-03-03T03:15:49;55.30;;;22.70;;
18822;SDS011;9540;51.550;7.980;2023-03-03T03:18:16;58.70;;;22.67;;
18822;SDS011;9540;51.550;7.980;2023-03-03T03:20:43;55.97;;;21.97;;
18822;SDS011;9540;51.550;7.980;2023-03-03T03:23:10;60.37;;;24.80;;
18822;SDS011;9540;51.550;7.980;2023-03-03T03:25:38;55.53;;;22.07;;
18822;SDS011;9540;51.550;7.980;2023-03-03T03:28:09;55.80;;;23.37;;
18822;SDS011;9540;51.550;7.980;2023-03-03T03:30:36;54.07;;;23.43;;
18822;SDS011;9540;51.550;7.980;2023-03-03T03:33:05;45.27;;;20.97;;
18822;SDS011;9540;51.550;7.980;2023-03-03T03:35:32;53.70;;;21.20;;
18822;SDS011;9540;51.550;7.980;2023-03-03T03:38:00;50.97;;;21.37;;
18822;SDS011;9540;51.550;7.980;2023-03-03T03:40:27;47.50;;;19.40;;
18822;SDS011;9540;51.550;7.980;2023-03-03T03:42:54;53.27;;;21.73;;
18822;SDS011;9540;51.550;7.980;2023-03-03T03:45:21;44.57;;;18.70;;
18822;SDS011;9540;51.550;7.980;2023-03-03T03:47:48;52.23;;;20.73;;
18822;SDS011;9540;51.550;7.980;2023-03-03T03:50:17;41.10;;;19.30;;
18822;SDS011;9540;51.550;7.980;2023-03-03T03:52:44;43.17;;;19.17;;
18822;SDS011;9540;51.550;7.980;2023-03-03T03:55:11;51.57;;;20.80;;
18822;SDS011;9540;51.550;7.980;2023-03-03T03:57:39;47.63;;;20.47;;
18822;SDS011;9540;51.550;7.980;2023-03-03T04:00:06;50.17;;;21.10;;
18822;SDS011;9540;51.550;7.980;2023-03-03T04:02:34;48.07;;;21.07;;
18822;SDS011;9540;51.550;7.980;2023-03-03T04:05:02;45.10;;;20.23;;
18822;SDS011;9540;51.550;7.980;2023-03-03T04:07:31;46.83;;;19.97;;
18822;SDS011;9540;51.550;7.980;2023-03-03T04:09:58;54.60;;;20.97;;
18822;SDS011;9540;51.550;7.980;2023-03-03T04:12:25;43.80;;;19.77;;
18822;SDS011;9540;51.550;7.980;2023-03-03T04:14:52;43.13;;;19.73;;
18822;SDS011;9540;51.550;7.980;2023-03-03T04:17:20;50.60;;;21.60;;
18822;SDS011;9540;51.550;7.980;2023-03-03T04:19:51;49.17;;;21.13;;
18822;SDS011;9540;51.550;7.980;2023-03-03T04:22:18;49.03;;;21.07;;
18822;SDS011;9540;51.550;7.980;2023-03-03T04:24:46;55.23;;;21.37;;
18822;SDS011;9540;51.550;7.980;2023-03-03T04:27:13;49.47;;;22.17;;
18822;SDS011;9540;51.550;7.980;2023-03-03T04:29:40;50.37;;;21.90;;
18822;SDS011;9540;51.550;7.980;2023-03-03T04:32:07;49.60;;;21.70;;
18822;SDS011;9540;51.550;7.980;2023-03-03T04:34:34;51.47;;;22.63;;
18822;SDS011;9540;51.550;7.980;2023-03-03T04:37:02;49.47;;;20.70;;
18822;SDS011;9540;51.550;7.980;2023-03-03T04:39:28;46.97;;;20.30;;
18822;SDS011;9540;51.550;7.980;2023-03-03T04:41:57;50.53;;;21.77;;
18822;SDS011;9540;51.550;7.980;2023-03-03T04:44:24;48.30;;;20.50;;
18822;SDS011;9540;51.550;7.980;2023-03-03T04:46:51;55.63;;;21.70;;
18822;SDS011;9540;51.550;7.980;2023-03-03T04:49:17;48.43;;;21.20;;
18822;SDS011;9540;51.550;7.980;2023-03-03T04:51:44;44.50;;;19.57;;
18822;SDS011;9540;51.550;7.980;2023-03-03T04:54:11;50.63;;;20.20;;
18822;SDS011;9540;51.550;7.980;2023-03-03T04:56:38;44.70;;;19.90;;
18822;SDS011;9540;51.550;7.980;2023-03-03T04:59:06;47.63;;;20.40;;
18822;SDS011;9540;51.550;7.980;2023-03-03T05:01:33;47.13;;;20.67;;
18822;SDS011;9540;51.550;7.980;2023-03-03T05:04:00;42.90;;;19.20;;
18822;SDS011;9540;51.550;7.980;2023-03-03T05:06:27;44.23;;;19.50;;
18822;SDS011;9540;51.550;7.980;2023-03-03T05:08:54;44.60;;;19.03;;
18822;SDS011;9540;51.550;7.980;2023-03-03T05:11:21;42.73;;;19.20;;
18822;SDS011;9540;51.550;7.980;2023-03-03T05:13:48;42.83;;;18.63;;
18822;SDS011;9540;51.550;7.980;2023-03-03T05:16:16;39.73;;;17.73;;
18822;SDS011;9540;51.550;7.980;2023-03-03T05:18:43;44.13;;;19.87;;
18822;SDS011;9540;51.550;7.980;2023-03-03T05:21:11;42.93;;;18.83;;
18822;SDS011;9540;51.550;7.980;2023-03-03T05:23:38;39.03;;;17.37;;
18822;SDS011;9540;51.550;7.980;2023-03-03T05:26:05;44.37;;;19.70;;
18822;SDS011;9540;51.550;7.980;2023-03-03T05:28:32;41.03;;;20.43;;
18822;SDS011;9540;51.550;7.980;2023-03-03T05:30:59;41.73;;;19.37;;
18822;SDS011;9540;51.550;7.980;2023-03-03T05:33:27;45.43;;;19.70;;
18822;SDS011;9540;51.550;7.980;2023-03-03T05:35:55;49.40;;;20.37;;
18822;SDS011;9540;51.550;7.980;2023-03-03T05:38:22;48.33;;;18.93;;
18822;SDS011;9540;51.550;7.980;2023-03-03T05:40:50;42.37;;;18.13;;
18822;SDS011;9540;51.550;7.980;2023-03-03T05:43:17;43.27;;;18.37;;
18822;SDS011;9540;51.550;7.980;2023-03-03T05:45:44;44.27;;;18.57;;
18822;SDS011;9540;51.550;7.980;2023-03-03T05:48:11;47.60;;;19.83;;
18822;SDS011;9540;51.550;7.980;2023-03-03T05:50:39;49.20;;;20.77;;
18822;SDS011;9540;51.550;7.980;2023-03-03T05:53:06;49.20;;;20.53;;
18822;SDS011;9540;51.550;7.980;2023-03-03T05:55:33;39.13;;;18.03;;
18822;SDS011;9540;51.550;7.980;2023-03-03T05:57:59;52.70;;;19.73;;
18822;SDS011;9540;51.550;7.980;2023-03-03T06:00:26;41.93;;;18.03;;
18822;SDS011;9540;51.550;7.980;2023-03-03T06:02:53;42.57;;;17.93;;
18822;SDS011;9540;51.550;7.980;2023-03-03T06:05:20;39.67;;;18.53;;
18822;SDS011;9540;51.550;7.980;2023-03-03T06:07:48;44.00;;;18.03;;
18822;SDS011;9540;51.550;7.980;2023-03-03T06:10:15;43.37;;;18.90;;
18822;SDS011;9540;51.550;7.980;2023-03-03T06:12:42;43.97;;;18.10;;
18822;SDS011;9540;51.550;7.980;2023-03-03T06:15:10;43.17;;;18.83;;
18822;SDS011;9540;51.550;7.980;2023-03-03T06:17:37;42.03;;;17.83;;
18822;SDS011;9540;51.550;7.980;2023-03-03T06:20:04;37.83;;;18.37;;
18822;SDS011;9540;51.550;7.980;2023-03-03T06:22:32;38.93;;;18.13;;
18822;SDS011;9540;51.550;7.980;2023-03-03T06:25:00;39.03;;;16.80;;
18822;SDS011;9540;51.550;7.980;2023-03-03T06:27:27;37.70;;;17.33;;
18822;SDS011;9540;51.550;7.980;2023-03-03T06:29:54;43.17;;;19.37;;
18822;SDS011;9540;51.550;7.980;2023-03-03T06:32:21;42.80;;;18.10;;
18822;SDS011;9540;51.550;7.980;2023-03-03T06:34:48;44.60;;;19.80;;
18822;SDS011;9540;51.550;7.980;2023-03-03T06:37:15;44.57;;;18.80;;
18822;SDS011;9540;51.550;7.980;2023-03-03T06:39:42;38.30;;;17.37;;
18822;SDS011;9540;51.550;7.980;2023-03-03T06:42:10;41.60;;;18.20;;
18822;SDS011;9540;51.550;7.980;2023-03-03T06:44:37;39.50;;;17.93;;
18822;SDS011;9540;51.550;7.980;2023-03-03T06:47:04;39.80;;;18.70;;
18822;SDS011;9540;51.550;7.980;2023-03-03T06:49:31;42.40;;;18.47;;
18822;SDS011;9540;51.550;7.980;2023-03-03T06:51:58;38.60;;;17.57;;
18822;SDS011;9540;51.550;7.980;2023-03-03T06:54:30;37.47;;;17.50;;
18822;SDS011;9540;51.550;7.980;2023-03-03T06:56:58;43.43;;;18.90;;
18822;SDS011;9540;51.550;7.980;2023-03-03T06:59:29;43.83;;;17.83;;
18822;SDS011;9540;51.550;7.980;2023-03-03T07:01:56;41.43;;;18.90;;
18822;SDS011;9540;51.550;7.980;2023-03-03T07:04:24;37.17;;;17.57;;
18822;SDS011;9540;51.550;7.980;2023-03-03T07:06:55;39.83;;;17.67;;
18822;SDS011;9540;51.550;7.980;2023-03-03T07:09:23;39.17;;;17.93;;
18822;SDS011;9540;51.550;7.980;2023-03-03T07:11:52;35.73;;;16.70;;
18822;SDS011;9540;51.550;7.980;2023-03-03T07:14:22;33.57;;;16.20;;
18822;SDS011;9540;51.550;7.980;2023-03-03T07:16:51;43.00;;;18.73;;
18822;SDS011;9540;51.550;7.980;2023-03-03T07:19:26;38.23;;;17.53;;
18822;SDS011;9540;51.550;7.980;2023-03-03T07:21:57;40.70;;;17.87;;
18822;SDS011;9540;51.550;7.980;2023-03-03T07:24:31;34.43;;;16.43;;
18822;SDS011;9540;51.550;7.980;2023-03-03T07:26:58;37.57;;;17.83;;
18822;SDS011;9540;51.550;7.980;2023-03-03T07:29:32;40.50;;;17.83;;
18822;SDS011;9540;51.550;7.980;2023-03-03T07:32:01;35.60;;;17.10;;
18822;SDS011;9540;51.550;7.980;2023-03-03T07:34:34;40.43;;;17.67;;
18822;SDS011;9540;51.550;7.980;2023-03-03T07:37:08;35.53;;;17.20;;
18822;SDS011;9540;51.550;7.980;2023-03-03T07:39:39;41.07;;;17.97;;
18822;SDS011;9540;51.550;7.980;2023-03-03T07:42:14;37.97;;;18.23;;
18822;SDS011;9540;51.550;7.980;2023-03-03T07:44:46;38.93;;;18.27;;
18822;SDS011;9540;51.550;7.980;2023-03-03T07:47:18;40.20;;;18.03;;
18822;SDS011;9540;51.550;7.980;2023-03-03T07:49:47;40.87;;;18.37;;
18822;SDS011;9540;51.550;7.980;2023-03-03T07:52:26;36.77;;;17.23;;
18822;SDS011;9540;51.550;7.980;2023-03-03T07:54:55;36.37;;;17.37;;
18822;SDS011;9540;51.550;7.980;2023-03-03T07:57:26;33.77;;;16.73;;
18822;SDS011;9540;51.550;7.980;2023-03-03T08:00:03;35.00;;;16.13;;
18822;SDS011;9540;51.550;7.980;2023-03-03T08:02:51;35.97;;;16.57;;
18822;SDS011;9540;51.550;7.980;2023-03-03T08:05:32;34.43;;;16.70;;
18822;SDS011;9540;51.550;7.980;2023-03-03T08:08:10;40.00;;;17.90;;
18822;SDS011;9540;51.550;7.980;2023-03-03T08:10:55;39.57;;;17.40;;
18822;SDS011;9540;51.550;7.980;2023-03-03T08:13:23;38.20;;;16.47;;
18822;SDS011;9540;51.550;7.980;2023-03-03T08:15:55;29.80;;;14.77;;
18822;SDS011;9540;51.550;7.980;2023-03-03T08:18:28;37.50;;;17.23;;
18822;SDS011;9540;51.550;7.980;2023-03-03T08:21:00;33.00;;;15.83;;
18822;SDS011;9540;51.550;7.980;2023-03-03T08:23:28;36.23;;;16.50;;
18822;SDS011;9540;51.550;7.980;2023-03-03T08:25:55;36.10;;;17.83;;
18822;SDS011;9540;51.550;7.980;2023-03-03T08:28:21;37.90;;;17.87;;
18822;SDS011;9540;51.550;7.980;2023-03-03T08:30:49;39.07;;;18.03;;
18822;SDS011;9540;51.550;7.980;2023-03-03T08:33:16;38.47;;;18.20;;
18822;SDS011;9540;51.550;7.980;2023-03-03T08:35:45;38.50;;;17.87;;
18822;SDS011;9540;51.550;7.980;2023-03-03T08:38:13;40.13;;;17.43;;
18822;SDS011;9540;51.550;7.980;2023-03-03T08:40:41;41.23;;;18.40;;
18822;SDS011;9540;51.550;7.980;2023-03-03T08:43:09;42.73;;;17.40;;
18822;SDS011;9540;51.550;7.980;2023-03-03T08:45:38;44.80;;;18.53;;
18822;SDS011;9540;51.550;7.980;2023-03-03T08:48:05;41.33;;;18.83;;
18822;SDS011;9540;51.550;7.980;2023-03-03T08:50:32;40.90;;;18.00;;
18822;SDS011;9540;51.550;7.980;2023-03-03T08:53:01;43.43;;;18.30;;
18822;SDS011;9540;51.550;7.980;2023-03-03T08:55:27;43.70;;;19.60;;
18822;SDS011;9540;51.550;7.980;2023-03-03T08:57:54;43.23;;;17.17;;
18822;SDS011;9540;51.550;7.980;2023-03-03T09:00:22;38.67;;;17.77;;
18822;SDS011;9540;51.550;7.980;2023-03-03T09:02:50;40.67;;;17.30;;
18822;SDS011;9540;51.550;7.980;2023-03-03T09:05:19;39.07;;;18.33;;
18822;SDS011;9540;51.550;7.980;2023-03-03T09:07:46;41.67;;;17.37;;
18822;SDS011;9540;51.550;7.980;2023-03-03T09:10:17;43.20;;;18.50;;
18822;SDS011;9540;51.550;7.980;2023-03-03T09:12:53;41.90;;;16.90;;
18822;SDS011;9540;51.550;7.980;2023-03-03T09:15:23;41.67;;;18.20;;
18822;SDS011;9540;51.550;7.980;2023-03-03T09:17:53;38.83;;;18.23;;
18822;SDS011;9540;51.550;7.980;2023-03-03T09:20:22;45.77;;;18.83;;
18822;SDS011;9540;51.550;7.980;2023-03-03T09:22:57;44.93;;;17.67;;
18822;SDS011;9540;51.550;7.980;2023-03-03T09:25:36;42.10;;;18.13;;
18822;SDS011;9540;51.550;7.980;2023-03-03T09:28:02;43.70;;;18.17;;
18822;SDS011;9540;51.550;7.980;2023-03-03T09:30:45;55.67;;;19.40;;
18822;SDS011;9540;51.550;7.980;2023-03-03T09:33:25;58.10;;;19.33;;
18822;SDS011;9540;51.550;7.980;2023-03-03T09:35:57;53.90;;;18.87;;
18822;SDS011;9540;51.550;7.980;2023-03-03T09:38:30;53.73;;;18.97;;
18822;SDS011;9540;51.550;7.980;2023-03-03T09:44:08;50.40;;;18.87;;
18822;SDS011;9540;51.550;7.980;2023-03-03T09:47:00;52.23;;;18.70;;
18822;SDS011;9540;51.550;7.980;2023-03-03T09:49:40;52.40;;;18.93;;
18822;SDS011;9540;51.550;7.980;2023-03-03T09:52:17;51.47;;;18.90;;
18822;SDS011;9540;51.550;7.980;2023-03-03T09:54:53;44.30;;;19.30;;
18822;SDS011;9540;51.550;7.980;2023-03-03T09:57:30;47.97;;;17.90;;
18822;SDS011;9540;51.550;7.980;2023-03-03T10:00:11;46.27;;;18.33;;
18822;SDS011;9540;51.550;7.980;2023-03-03T10:02:47;54.40;;;19.07;;
18822;SDS011;9540;51.550;7.980;2023-03-03T10:05:28;55.17;;;17.93;;
18822;SDS011;9540;51.550;7.980;2023-03-03T10:08:09;49.43;;;19.80;;
18822;SDS011;9540;51.550;7.980;2023-03-03T10:10:49;44.87;;;17.70;;
18822;SDS011;9540;51.550;7.980;2023-03-03T10:13:29;59.17;;;19.03;;
18822;SDS011;9540;51.550;7.980;2023-03-03T10:16:09;51.67;;;17.23;;
18822;SDS011;9540;51.550;7.980;2023-03-03T10:18:49;47.47;;;16.83;;
18822;SDS011;9540;51.550;7.980;2023-03-03T10:21:24;47.47;;;18.30;;
18822;SDS011;9540;51.550;7.980;2023-03-03T10:23:55;47.57;;;16.43;;
18822;SDS011;9540;51.550;7.980;2023-03-03T10:26:35;47.03;;;17.43;;
18822;SDS011;9540;51.550;7.980;2023-03-03T10:29:16;43.83;;;16.03;;
18822;SDS011;9540;51.550;7.980;2023-03-03T10:31:58;44.97;;;17.37;;
18822;SDS011;9540;51.550;7.980;2023-03-03T10:34:49;54.13;;;17.57;;
18822;SDS011;9540;51.550;7.980;2023-03-03T10:37:45;44.10;;;17.73;;
18822;SDS011;9540;51.550;7.980;2023-03-03T10:40:20;42.20;;;15.17;;
18822;SDS011;9540;51.550;7.980;2023-03-03T10:43:04;45.70;;;17.93;;
18822;SDS011;9540;51.550;7.980;2023-03-03T10:45:58;41.37;;;15.30;;
18822;SDS011;9540;51.550;7.980;2023-03-03T10:51:42;44.10;;;16.73;;
18822;SDS011;9540;51.550;7.980;2023-03-03T10:54:27;49.40;;;16.33;;
18822;SDS011;9540;51.550;7.980;2023-03-03T10:57:07;44.63;;;16.47;;
18822;SDS011;9540;51.550;7.980;2023-03-03T10:59:47;39.43;;;16.07;;
18822;SDS011;9540;51.550;7.980;2023-03-03T11:02:24;41.63;;;15.97;;
18822;SDS011;9540;51.550;7.980;2023-03-03T11:05:11;43.93;;;17.20;;
18822;SDS011;9540;51.550;7.980;2023-03-03T11:07:43;43.00;;;16.93;;
18822;SDS011;9540;51.550;7.980;2023-03-03T11:10:17;45.73;;;17.10;;
18822;SDS011;9540;51.550;7.980;2023-03-03T11:12:53;45.60;;;16.47;;
18822;SDS011;9540;51.550;7.980;2023-03-03T11:15:38;39.07;;;15.10;;
18822;SDS011;9540;51.550;7.980;2023-03-03T11:18:16;41.20;;;16.10;;
18822;SDS011;9540;51.550;7.980;2023-03-03T11:21:01;44.43;;;15.87;;
18822;SDS011;9540;51.550;7.980;2023-03-03T11:23:41;45.90;;;15.83;;
18822;SDS011;9540;51.550;7.980;2023-03-03T11:26:22;37.77;;;14.43;;
18822;SDS011;9540;51.550;7.980;2023-03-03T11:29:09;47.77;;;15.63;;
18822;SDS011;9540;51.550;7.980;2023-03-03T11:31:45;40.93;;;15.40;;
18822;SDS011;9540;51.550;7.980;2023-03-03T11:34:24;45.30;;;14.83;;
18822;SDS011;9540;51.550;7.980;2023-03-03T11:37:03;39.30;;;15.27;;
18822;SDS011;9540;51.550;7.980;2023-03-03T11:39:33;41.57;;;15.47;;
18822;SDS011;9540;51.550;7.980;2023-03-03T11:42:03;35.37;;;13.30;;
18822;SDS011;9540;51.550;7.980;2023-03-03T11:44:42;40.37;;;13.57;;
18822;SDS011;9540;51.550;7.980;2023-03-03T11:47:15;44.53;;;15.40;;
18822;SDS011;9540;51.550;7.980;2023-03-03T11:49:47;41.97;;;15.27;;
18822;SDS011;9540;51.550;7.980;2023-03-03T11:52:23;36.10;;;13.53;;
18822;SDS011;9540;51.550;7.980;2023-03-03T11:54:59;46.10;;;14.93;;
18822;SDS011;9540;51.550;7.980;2023-03-03T11:57:34;34.40;;;13.50;;
18822;SDS011;9540;51.550;7.980;2023-03-03T12:00:17;38.30;;;13.13;;
18822;SDS011;9540;51.550;7.980;2023-03-03T12:05:47;43.60;;;14.70;;
18822;SDS011;9540;51.550;7.980;2023-03-03T12:08:33;39.80;;;13.97;;
18822;SDS011;9540;51.550;7.980;2023-03-03T12:11:06;47.13;;;15.40;;
18822;SDS011;9540;51.550;7.980;2023-03-03T12:13:39;39.67;;;15.37;;
18822;SDS011;9540;51.550;7.980;2023-03-03T12:16:19;40.07;;;14.53;;
18822;SDS011;9540;51.550;7.980;2023-03-03T12:21:48;39.67;;;14.27;;
18822;SDS011;9540;51.550;7.980;2023-03-03T12:24:29;40.60;;;16.40;;
18822;SDS011;9540;51.550;7.980;2023-03-03T12:27:08;41.47;;;15.00;;
18822;SDS011;9540;51.550;7.980;2023-03-03T12:29:40;43.17;;;14.90;;
18822;SDS011;9540;51.550;7.980;2023-03-03T12:32:18;46.93;;;16.73;;
18822;SDS011;9540;51.550;7.980;2023-03-03T12:34:53;50.07;;;16.53;;
18822;SDS011;9540;51.550;7.980;2023-03-03T12:37:31;42.97;;;16.13;;
18822;SDS011;9540;51.550;7.980;2023-03-03T12:40:09;49.53;;;17.23;;
18822;SDS011;9540;51.550;7.980;2023-03-03T12:45:36;46.00;;;16.17;;
18822;SDS011;9540;51.550;7.980;2023-03-03T12:48:14;52.17;;;18.47;;
18822;SDS011;9540;51.550;7.980;2023-03-03T12:50:49;49.73;;;17.67;;
18822;SDS011;9540;51.550;7.980;2023-03-03T12:53:32;49.13;;;16.73;;
18822;SDS011;9540;51.550;7.980;2023-03-03T12:56:05;54.13;;;18.53;;
18822;SDS011;9540;51.550;7.980;2023-03-03T12:58:36;52.13;;;18.03;;
18822;SDS011;9540;51.550;7.980;2023-03-03T13:04:01;47.57;;;16.33;;
18822;SDS011;9540;51.550;7.980;2023-03-03T13:06:33;47.73;;;16.63;;
18822;SDS011;9540;51.550;7.980;2023-03-03T13:09:14;48.57;;;17.53;;
18822;SDS011;9540;51.550;7.980;2023-03-03T13:11:54;46.47;;;17.27;;
18822;SDS011;9540;51.550;7.980;2023-03-03T13:14:31;48.93;;;16.60;;
18822;SDS011;9540;51.550;7.980;2023-03-03T13:17:08;47.03;;;17.40;;
18822;SDS011;9540;51.550;7.980;2023-03-03T13:19:45;45.73;;;15.77;;
18822;SDS011;9540;51.550;7.980;2023-03-03T13:22:19;51.37;;;16.70;;
18822;SDS011;9540;51.550;7.980;2023-03-03T13:24:59;49.53;;;17.40;;
18822;SDS011;9540;51.550;7.980;2023-03-03T13:27:31;43.90;;;15.53;;
18822;SDS011;9540;51.550;7.980;2023-03-03T13:30:08;50.97;;;18.30;;
18822;SDS011;9540;51.550;7.980;2023-03-03T13:32:42;49.80;;;17.47;;
18822;SDS011;9540;51.550;7.980;2023-03-03T13:35:17;47.03;;;17.43;;
18822;SDS011;9540;51.550;7.980;2023-03-03T13:37:58;51.90;;;18.33;;
18822;SDS011;9540;51.550;7.980;2023-03-03T13:40:33;57.07;;;18.40;;
18822;SDS011;9540;51.550;7.980;2023-03-03T13:43:08;56.37;;;18.67;;
18822;SDS011;9540;51.550;7.980;2023-03-03T13:45:42;46.50;;;17.40;;
18822;SDS011;9540;51.550;7.980;2023-03-03T13:48:23;43.10;;;16.60;;
18822;SDS011;9540;51.550;7.980;2023-03-03T13:51:02;56.33;;;17.53;;
18822;SDS011;9540;51.550;7.980;2023-03-03T13:53:37;50.43;;;17.90;;
18822;SDS011;9540;51.550;7.980;2023-03-03T13:56:15;53.50;;;17.00;;
18822;SDS011;9540;51.550;7.980;2023-03-03T13:58:59;52.50;;;18.53;;
18822;SDS011;9540;51.550;7.980;2023-03-03T14:01:33;52.43;;;18.03;;
18822;SDS011;9540;51.550;7.980;2023-03-03T14:04:11;62.97;;;19.57;;
18822;SDS011;9540;51.550;7.980;2023-03-03T14:06:42;52.40;;;18.17;;
18822;SDS011;9540;51.550;7.980;2023-03-03T14:09:21;51.90;;;17.53;;
18822;SDS011;9540;51.550;7.980;2023-03-03T14:12:07;53.53;;;18.00;;
18822;SDS011;9540;51.550;7.980;2023-03-03T14:14:43;53.57;;;18.77;;
18822;SDS011;9540;51.550;7.980;2023-03-03T14:17:16;59.23;;;19.50;;
18822;SDS011;9540;51.550;7.980;2023-03-03T14:19:51;64.22;;;20.17;;
18822;SDS011;9540;51.550;7.980;2023-03-03T14:22:29;60.67;;;20.37;;
18822;SDS011;9540;51.550;7.980;2023-03-03T14:25:05;52.13;;;17.57;;
18822;SDS011;9540;51.550;7.980;2023-03-03T14:27:36;57.63;;;19.95;;
18822;SDS011;9540;51.550;7.980;2023-03-03T14:32:59;47.63;;;18.20;;
18822;SDS011;9540;51.550;7.980;2023-03-03T14:35:29;53.97;;;17.53;;
18822;SDS011;9540;51.550;7.980;2023-03-03T14:38:00;47.83;;;17.13;;
18822;SDS011;9540;51.550;7.980;2023-03-03T14:40:29;51.40;;;19.97;;
18822;SDS011;9540;51.550;7.980;2023-03-03T14:43:00;51.57;;;18.43;;
18822;SDS011;9540;51.550;7.980;2023-03-03T14:45:33;57.22;;;18.98;;
18822;SDS011;9540;51.550;7.980;2023-03-03T14:48:05;64.47;;;19.92;;
18822;SDS011;9540;51.550;7.980;2023-03-03T14:50:40;57.28;;;18.77;;
18822;SDS011;9540;51.550;7.980;2023-03-03T14:53:10;48.55;;;17.27;;
18822;SDS011;9540;51.550;7.980;2023-03-03T14:55:41;51.60;;;18.57;;
18822;SDS011;9540;51.550;7.980;2023-03-03T14:58:24;51.63;;;17.97;;
18822;SDS011;9540;51.550;7.980;2023-03-03T15:01:06;54.10;;;19.20;;
18822;SDS011;9540;51.550;7.980;2023-03-03T15:03:34;47.67;;;17.50;;
18822;SDS011;9540;51.550;7.980;2023-03-03T15:06:06;49.70;;;18.92;;
18822;SDS011;9540;51.550;7.980;2023-03-03T15:08:38;46.47;;;16.63;;
18822;SDS011;9540;51.550;7.980;2023-03-03T15:11:13;44.97;;;17.45;;
18822;SDS011;9540;51.550;7.980;2023-03-03T15:13:47;48.45;;;18.23;;
18822;SDS011;9540;51.550;7.980;2023-03-03T15:16:16;89.07;;;22.70;;
18822;SDS011;9540;51.550;7.980;2023-03-03T15:18:53;51.78;;;18.02;;
18822;SDS011;9540;51.550;7.980;2023-03-03T15:21:44;52.67;;;20.08;;
18822;SDS011;9540;51.550;7.980;2023-03-03T15:24:22;52.10;;;17.98;;